Terminal Aerodrome Forecast
Issued by NWS

Home | Current Version | Previous Version | Text Only | Print | Product List | Glossary On
Versions: 1 2 3 4 5 6 7 8 9 10 11 12 13 14 15 16 17 18 19 20 21 22 23 24 25 26 27 28 29 30 31 32 33 34 35 36 37
179
FTUS45 KGJT 210545
TAFEGE
TAF
KEGE 210545Z 2106/2206 00000KT P6SM VCSH OVC070
     FM210900 VRB03KT P6SM VCSH BKN050
     FM211600 00000KT 5SM -SN SCT020 BKN040
     FM211900 26004KT 5SM -SN OVC035
     FM212200 27008KT 3SM -SN OVC020
     FM220300 26008KT P6SM VCSH SCT020 OVC050
      AMD LTD TO CLD VIS AND WIND TIL 211300=

USA.gov is the U.S. government's official web portal to all federal, state and local government web resources and services.